createdAt,value
2019-04-30T00:02:05.680Z,945.94
2019-04-30T00:04:37.277Z,945.89
2019-04-30T00:06:57.661Z,945.91
2019-04-30T00:09:25.046Z,945.96
2019-04-30T00:11:50.695Z,945.95
2019-04-30T00:14:16.654Z,945.94
2019-04-30T00:16:45.009Z,945.86
2019-04-30T00:19:10.556Z,945.91
2019-04-30T00:21:36.167Z,945.82
2019-04-30T00:24:06.213Z,945.77
2019-04-30T00:26:28.298Z,945.70
2019-04-30T00:28:55.322Z,945.58
2019-04-30T00:31:23.852Z,945.62
2019-04-30T00:33:47.260Z,945.53
2019-04-30T00:36:14.809Z,945.45
2019-04-30T00:38:39.902Z,945.53
2019-04-30T00:41:10.049Z,945.53
2019-04-30T00:43:32.565Z,945.63
2019-04-30T00:45:58.869Z,945.60
2019-04-30T00:48:29.732Z,945.55
2019-04-30T00:50:51.530Z,945.53
2019-04-30T00:53:17.835Z,945.58
2019-04-30T00:55:48.265Z,945.70
2019-04-30T00:58:10.501Z,945.69
2019-04-30T01:00:37.153Z,945.58
2019-04-30T01:03:07.864Z,945.57
2019-04-30T01:05:29.468Z,945.77
2019-04-30T01:07:55.773Z,945.61
2019-04-30T01:10:24.724Z,945.67
2019-04-30T01:12:50.302Z,945.66
2019-04-30T01:15:14.749Z,945.67
2019-04-30T01:17:45.386Z,945.72
2019-04-30T01:20:09.340Z,945.67
2019-04-30T01:22:33.692Z,945.65
2019-04-30T01:25:01.295Z,945.64
2019-04-30T01:27:26.324Z,945.60
2019-04-30T01:29:52.633Z,945.68
2019-04-30T01:32:21.060Z,945.76
2019-04-30T01:34:49.972Z,945.78
2019-04-30T01:37:11.573Z,945.65
2019-04-30T01:39:39.160Z,945.67
2019-04-30T01:42:07.956Z,945.54
2019-04-30T01:44:30.540Z,945.60
2019-04-30T01:46:58.569Z,945.59
2019-04-30T01:49:25.752Z,945.63
2019-04-30T01:51:52.863Z,945.57
2019-04-30T01:54:20.797Z,945.64
2019-04-30T01:56:42.126Z,945.49
2019-04-30T01:59:09.209Z,945.46
2019-04-30T02:01:34.776Z,945.39
2019-04-30T02:04:01.107Z,945.35
2019-04-30T02:06:29.316Z,945.42
2019-04-30T02:08:53.744Z,945.37
2019-04-30T02:11:20.073Z,945.39
2019-04-30T02:13:46.376Z,945.26
2019-04-30T02:16:12.705Z,945.29
2019-04-30T02:18:39.384Z,945.24
2019-04-30T02:21:05.336Z,945.28
2019-04-30T02:23:31.645Z,945.30
2019-04-30T02:25:58.926Z,945.35
2019-04-30T02:28:24.283Z,945.43
2019-04-30T02:30:50.821Z,945.37
2019-04-30T02:33:19.515Z,945.31
2019-04-30T02:35:43.228Z,945.28
2019-04-30T02:38:10.099Z,945.31
2019-04-30T02:40:35.863Z,945.29
2019-04-30T02:43:02.189Z,945.40
2019-04-30T02:45:29.978Z,945.31
2019-04-30T02:47:54.858Z,945.37
2019-04-30T02:50:22.557Z,945.24
2019-04-30T02:52:50.279Z,945.30
2019-04-30T02:55:13.833Z,945.24
2019-04-30T02:57:40.236Z,945.19
2019-04-30T03:00:06.450Z,945.27
2019-04-30T03:02:32.778Z,945.27
2019-04-30T03:05:00.290Z,945.22
2019-04-30T03:07:25.414Z,945.28
2019-04-30T03:09:51.740Z,945.22
2019-04-30T03:12:20.300Z,945.18
2019-04-30T03:14:44.373Z,945.25
2019-04-30T03:17:10.693Z,945.22
2019-04-30T03:19:37.053Z,945.14
2019-04-30T03:22:03.355Z,945.14
2019-04-30T03:24:29.703Z,945.15
2019-04-30T03:26:56.022Z,945.19
2019-04-30T03:29:23.841Z,945.26
2019-04-30T03:31:52.308Z,945.42
2019-04-30T03:34:24.287Z,945.34
2019-04-30T03:36:41.278Z,945.27
2019-04-30T03:39:10.639Z,945.22
2019-04-30T03:41:34.506Z,945.32
2019-04-30T03:44:16.464Z,945.40
2019-04-30T03:46:29.660Z,945.35
2019-04-30T03:48:53.411Z,945.40
2019-04-30T03:51:19.983Z,945.32
2019-04-30T03:53:46.069Z,945.32
2019-04-30T03:56:12.390Z,945.36
2019-04-30T03:58:39.627Z,945.32
2019-04-30T04:01:05.024Z,945.35
2019-04-30T04:03:31.379Z,945.32
2019-04-30T04:05:59.473Z,945.38
2019-04-30T04:08:23.994Z,945.43
2019-04-30T04:10:53.095Z,945.37
2019-04-30T04:13:16.633Z,945.37
2019-04-30T04:15:42.985Z,945.29
2019-04-30T04:18:10.712Z,945.34
2019-04-30T04:20:35.614Z,945.46
2019-04-30T04:23:01.940Z,945.44
2019-04-30T04:25:29.861Z,945.35
2019-04-30T04:27:54.563Z,945.26
2019-04-30T04:30:20.887Z,945.27
2019-04-30T04:32:49.919Z,945.31
2019-04-30T04:35:13.562Z,945.30
2019-04-30T04:37:39.865Z,945.23
2019-04-30T04:40:06.224Z,945.25
2019-04-30T04:42:33.113Z,945.28
2019-04-30T04:44:59.495Z,945.25
2019-04-30T04:47:25.184Z,945.29
2019-04-30T04:49:53.976Z,945.32
2019-04-30T04:52:21.051Z,945.34
2019-04-30T04:54:44.151Z,945.37
2019-04-30T04:57:17.244Z,945.35
2019-04-30T04:59:36.797Z,945.28
2019-04-30T05:02:03.119Z,945.27
2019-04-30T05:04:29.909Z,945.35
2019-04-30T05:06:55.810Z,945.20
2019-04-30T05:09:22.117Z,945.30
2019-04-30T05:11:48.808Z,945.22
2019-04-30T05:14:14.803Z,945.14
2019-04-30T05:16:41.128Z,945.17
2019-04-30T05:19:08.884Z,945.18
2019-04-30T05:21:41.961Z,945.24
2019-04-30T05:24:00.084Z,945.25
2019-04-30T05:26:26.421Z,945.27
2019-04-30T05:28:53.021Z,945.30
2019-04-30T05:31:21.115Z,945.21
2019-04-30T05:33:45.396Z,945.23
2019-04-30T05:36:11.744Z,945.15
2019-04-30T05:38:39.186Z,945.22
2019-04-30T05:41:04.428Z,945.18
2019-04-30T05:43:30.735Z,945.15
2019-04-30T05:45:58.622Z,945.12
2019-04-30T05:48:23.454Z,945.17
2019-04-30T05:50:51.831Z,945.14
2019-04-30T05:53:16.088Z,945.22
2019-04-30T05:55:42.449Z,945.10
2019-04-30T05:58:09.363Z,945.07
2019-04-30T06:00:35.108Z,945.11
2019-04-30T06:03:01.440Z,945.09
2019-04-30T06:05:28.577Z,945.09
2019-04-30T06:07:55.453Z,945.13
2019-04-30T06:10:20.418Z,945.10
2019-04-30T06:12:46.741Z,945.13
2019-04-30T06:15:13.147Z,945.15
2019-04-30T06:17:39.453Z,945.22
2019-04-30T06:20:17.430Z,945.15
2019-04-30T06:22:32.088Z,945.10
2019-04-30T06:24:59.488Z,945.19
2019-04-30T06:27:31.556Z,945.22
2019-04-30T06:29:58.484Z,945.09
2019-04-30T06:32:24.229Z,945.12
2019-04-30T06:34:50.542Z,945.10
2019-04-30T06:37:16.870Z,945.09
2019-04-30T06:39:43.191Z,945.07
2019-04-30T06:42:12.807Z,945.12
2019-04-30T06:44:39.308Z,945.12
2019-04-30T06:47:02.160Z,945.05
2019-04-30T06:49:28.895Z,944.99
2019-04-30T06:51:54.844Z,944.96
2019-04-30T06:54:21.147Z,944.98
2019-04-30T06:56:48.512Z,944.93
2019-04-30T06:59:13.808Z,944.84
2019-04-30T07:01:40.140Z,944.90
2019-04-30T07:04:06.465Z,945.04
2019-04-30T07:06:37.159Z,945.01
2019-04-30T07:08:59.622Z,944.88
2019-04-30T07:11:25.440Z,944.90
2019-04-30T07:13:52.260Z,944.93
2019-04-30T07:16:18.972Z,945.00
2019-04-30T07:18:44.421Z,945.03
2019-04-30T07:21:10.728Z,945.00
2019-04-30T07:23:38.721Z,944.94
2019-04-30T07:26:03.371Z,944.93
2019-04-30T07:28:43.809Z,944.91
2019-04-30T07:31:08.710Z,944.89
2019-04-30T07:33:22.362Z,945.06
2019-04-30T07:35:49.890Z,945.03
2019-04-30T07:38:14.985Z,945.10
2019-04-30T07:40:41.315Z,945.12
2019-04-30T07:43:09.110Z,945.09
2019-04-30T07:45:33.966Z,945.10
2019-04-30T07:48:00.297Z,945.15
2019-04-30T07:50:27.174Z,945.18
2019-04-30T07:53:02.514Z,945.15
2019-04-30T07:55:19.724Z,945.04
2019-04-30T07:57:45.595Z,945.06
2019-04-30T08:00:11.949Z,945.19
2019-04-30T08:02:43.448Z,945.18
2019-04-30T08:05:04.589Z,945.20
2019-04-30T08:07:31.018Z,945.18
2019-04-30T08:09:58.958Z,945.31
2019-04-30T08:12:30.495Z,945.25
2019-04-30T08:14:49.926Z,945.26
2019-04-30T08:17:16.255Z,945.26
2019-04-30T08:19:42.561Z,945.21
2019-04-30T08:22:09.573Z,945.22
2019-04-30T08:24:35.197Z,945.28
2019-04-30T08:27:01.507Z,945.26
2019-04-30T08:29:29.464Z,945.17
2019-04-30T08:31:54.141Z,945.18
2019-04-30T08:34:20.468Z,945.10
2019-04-30T08:36:48.818Z,945.16
2019-04-30T08:39:13.107Z,945.11
2019-04-30T08:41:39.463Z,945.18
2019-04-30T08:44:05.790Z,945.13
2019-04-30T08:46:32.132Z,945.06
2019-04-30T08:48:58.878Z,944.95
2019-04-30T08:51:24.804Z,945.05
2019-04-30T08:53:51.089Z,945.06
2019-04-30T08:56:21.707Z,945.00
2019-04-30T08:58:43.749Z,945.07
2019-04-30T09:01:10.061Z,944.93
2019-04-30T09:03:36.402Z,944.91
2019-04-30T09:06:02.717Z,944.98
2019-04-30T09:08:29.524Z,944.97
2019-04-30T09:10:55.371Z,944.91
2019-04-30T09:13:21.698Z,944.95
2019-04-30T09:15:49.209Z,945.06
2019-04-30T09:18:14.378Z,945.42
2019-04-30T09:20:40.992Z,945.46
2019-04-30T09:23:07.059Z,945.54
2019-04-30T09:25:33.429Z,945.60
2019-04-30T09:27:59.768Z,945.66
2019-04-30T09:30:26.054Z,945.66
2019-04-30T09:32:52.431Z,945.69
2019-04-30T09:35:19.630Z,945.70
2019-04-30T09:37:45.083Z,945.68
2019-04-30T09:40:18.225Z,945.67
2019-04-30T09:42:39.072Z,945.65
2019-04-30T09:45:04.163Z,945.65
2019-04-30T09:47:30.498Z,945.62
2019-04-30T09:49:59.073Z,945.68
2019-04-30T09:52:23.157Z,945.67
2019-04-30T09:54:50.287Z,945.59
2019-04-30T09:57:15.809Z,945.73
2019-04-30T09:59:42.119Z,945.63
2019-04-30T10:02:09.303Z,945.60
2019-04-30T10:04:35.046Z,945.64
2019-04-30T10:07:01.125Z,945.57
2019-04-30T10:09:29.233Z,945.66
2019-04-30T10:11:53.877Z,945.57
2019-04-30T10:14:20.217Z,945.63
2019-04-30T10:16:46.519Z,945.67
2019-04-30T10:19:14.962Z,945.60
2019-04-30T10:21:39.159Z,945.54
2019-04-30T10:24:14.886Z,945.55
2019-04-30T10:26:31.804Z,945.50
2019-04-30T10:28:58.158Z,945.55
2019-04-30T10:31:24.502Z,945.66
2019-04-30T10:33:50.767Z,945.78
2019-04-30T10:36:17.179Z,945.91
2019-04-30T10:38:43.474Z,946.18
2019-04-30T10:41:09.802Z,946.17
2019-04-30T10:43:36.137Z,946.25
2019-04-30T10:46:02.440Z,946.16
2019-04-30T10:48:28.799Z,946.12
2019-04-30T10:50:55.108Z,946.08
2019-04-30T10:53:21.408Z,945.96
2019-04-30T10:55:48.622Z,945.90
2019-04-30T10:58:15.429Z,945.85
2019-04-30T11:00:40.400Z,945.90
2019-04-30T11:03:17.251Z,945.79
2019-04-30T11:05:33.088Z,945.79
2019-04-30T11:07:59.596Z,945.80
2019-04-30T11:10:25.799Z,945.75
2019-04-30T11:12:52.148Z,945.69
2019-04-30T11:15:20.631Z,945.55
2019-04-30T11:17:44.958Z,945.66
2019-04-30T11:20:11.243Z,945.51
2019-04-30T11:22:37.590Z,945.53
2019-04-30T11:25:03.968Z,945.49
2019-04-30T11:27:31.111Z,945.46
2019-04-30T11:30:01.535Z,945.36
2019-04-30T11:32:22.874Z,945.36
2019-04-30T11:34:49.053Z,945.26
2019-04-30T11:37:15.416Z,945.12
2019-04-30T11:39:41.684Z,945.10
2019-04-30T11:42:08.017Z,944.88
2019-04-30T11:44:34.329Z,944.96
2019-04-30T11:47:00.652Z,944.96
2019-04-30T11:49:26.948Z,944.98
2019-04-30T11:51:53.275Z,945.03
2019-04-30T11:54:19.580Z,944.92
2019-04-30T11:56:45.921Z,944.82
2019-04-30T11:59:12.243Z,944.76
2019-04-30T12:01:38.551Z,944.81
2019-04-30T12:04:04.884Z,944.71
2019-04-30T12:06:31.245Z,944.71
2019-04-30T12:08:59.124Z,944.52
2019-04-30T12:11:23.871Z,944.59
2019-04-30T12:13:50.178Z,944.41
2019-04-30T12:16:18.530Z,944.55
2019-04-30T12:18:42.843Z,944.44
2019-04-30T12:21:09.147Z,944.37
2019-04-30T12:23:35.480Z,944.40
2019-04-30T12:26:02.982Z,944.32
2019-04-30T12:28:29.694Z,944.32
2019-04-30T12:30:54.469Z,944.27
2019-04-30T12:33:20.959Z,944.27
2019-04-30T12:35:51.032Z,944.21
2019-04-30T12:38:16.448Z,944.12
2019-04-30T12:40:42.793Z,944.00
2019-04-30T12:43:09.091Z,944.00
2019-04-30T12:45:35.413Z,943.86
2019-04-30T12:48:01.721Z,944.02
2019-04-30T12:50:29.173Z,943.77
2019-04-30T12:52:54.389Z,943.71
2019-04-30T12:55:22.511Z,943.78
2019-04-30T12:57:58.128Z,943.64
2019-04-30T13:00:13.695Z,943.70
2019-04-30T13:02:44.982Z,943.52
2019-04-30T13:05:09.272Z,943.40
2019-04-30T13:07:36.113Z,943.55
2019-04-30T13:10:02.849Z,943.49
2019-04-30T13:12:28.590Z,943.43
2019-04-30T13:14:54.918Z,943.60
2019-04-30T13:17:20.941Z,943.26
2019-04-30T13:19:47.269Z,943.43
2019-04-30T13:22:13.586Z,943.37
2019-04-30T13:24:42.740Z,943.41
2019-04-30T13:27:15.659Z,943.30
2019-04-30T13:29:35.384Z,943.22
2019-04-30T13:32:04.739Z,943.36
2019-04-30T13:34:31.117Z,943.57
2019-04-30T13:36:59.300Z,943.26
2019-04-30T13:39:23.790Z,943.31
2019-04-30T13:41:51.004Z,943.31
2019-04-30T13:44:16.694Z,943.26
2019-04-30T13:46:42.999Z,943.24
2019-04-30T13:49:09.326Z,943.21
2019-04-30T13:51:35.655Z,943.30
2019-04-30T13:54:01.976Z,943.31
2019-04-30T13:56:28.813Z,943.23
2019-04-30T13:58:54.658Z,943.22
2019-04-30T14:01:21.434Z,943.35
2019-04-30T14:03:48.904Z,943.27
2019-04-30T14:06:13.668Z,943.09
2019-04-30T14:08:39.972Z,943.30
2019-04-30T14:11:06.362Z,943.31
2019-04-30T14:13:32.686Z,943.31
2019-04-30T14:15:59.002Z,943.30
2019-04-30T14:18:30.774Z,943.21
2019-04-30T14:20:51.652Z,943.26
2019-04-30T14:23:18.614Z,943.30
2019-04-30T14:25:55.907Z,943.41
2019-04-30T14:28:10.819Z,943.29
2019-04-30T14:30:39.135Z,943.57
2019-04-30T14:33:03.366Z,943.44
2019-04-30T14:35:29.691Z,943.65
2019-04-30T14:37:56.297Z,943.73
2019-04-30T14:40:23.176Z,943.75
2019-04-30T14:42:49.412Z,943.64
2019-04-30T14:45:15.689Z,943.73
2019-04-30T14:47:42.454Z,943.77
2019-04-30T14:50:09.752Z,943.76
2019-04-30T14:52:34.235Z,943.77
2019-04-30T14:55:00.550Z,943.73
2019-04-30T14:57:26.857Z,943.74
2019-04-30T14:59:53.284Z,943.76
2019-04-30T15:02:22.383Z,943.67
2019-04-30T15:04:46.142Z,943.59
2019-04-30T15:07:12.473Z,943.73
2019-04-30T15:09:38.798Z,943.65
2019-04-30T15:12:05.137Z,943.72
2019-04-30T15:14:31.437Z,943.79
2019-04-30T15:16:57.780Z,943.81
2019-04-30T15:19:24.188Z,943.80
2019-04-30T15:21:50.642Z,943.84
2019-04-30T15:24:16.963Z,943.89
2019-04-30T15:26:44.212Z,943.92
2019-04-30T15:29:13.387Z,943.89
2019-04-30T15:31:35.943Z,943.98
2019-04-30T15:34:03.224Z,943.88
2019-04-30T15:36:29.353Z,943.90
2019-04-30T15:38:54.959Z,943.97
2019-04-30T15:41:21.279Z,943.93
2019-04-30T15:43:47.586Z,944.00
2019-04-30T15:46:13.931Z,944.02
2019-04-30T15:48:40.230Z,943.97
2019-04-30T15:51:06.541Z,943.95
2019-04-30T15:53:33.311Z,944.02
2019-04-30T15:56:00.670Z,944.03
2019-04-30T15:58:25.974Z,944.02
2019-04-30T16:00:52.390Z,944.05
2019-04-30T16:03:18.680Z,944.01
2019-04-30T16:05:45.037Z,944.02
2019-04-30T16:08:11.379Z,943.96
2019-04-30T16:10:39.622Z,944.05
2019-04-30T16:13:04.001Z,944.02
2019-04-30T16:15:30.312Z,944.06
2019-04-30T16:17:56.645Z,944.12
2019-04-30T16:20:22.960Z,944.06
2019-04-30T16:22:49.433Z,944.18
2019-04-30T16:25:15.647Z,944.17
2019-04-30T16:27:41.971Z,944.17
2019-04-30T16:30:09.526Z,944.24
2019-04-30T16:32:34.600Z,944.33
2019-04-30T16:35:00.964Z,944.35
2019-04-30T16:37:28.692Z,944.44
2019-04-30T16:39:53.602Z,944.42
2019-04-30T16:42:19.994Z,944.45
2019-04-30T16:44:46.337Z,944.46
2019-04-30T16:47:16.268Z,944.50
2019-04-30T16:49:38.999Z,944.51
2019-04-30T16:52:05.328Z,944.53
2019-04-30T16:54:31.636Z,944.57
2019-04-30T16:57:04.076Z,944.63
2019-04-30T16:59:24.318Z,944.64
2019-04-30T17:01:57.569Z,944.68
2019-04-30T17:04:19.081Z,944.69
2019-04-30T17:06:43.422Z,944.68
2019-04-30T17:09:09.743Z,944.68
2019-04-30T17:11:36.052Z,944.61
2019-04-30T17:14:02.411Z,944.64
2019-04-30T17:16:30.221Z,944.67
2019-04-30T17:18:55.000Z,944.68
2019-04-30T17:21:21.337Z,944.75
2019-04-30T17:23:50.661Z,944.79
2019-04-30T17:26:13.976Z,944.96
2019-04-30T17:28:40.301Z,945.09
2019-04-30T17:31:06.629Z,945.13
2019-04-30T17:33:33.021Z,945.15
2019-04-30T17:35:59.304Z,945.14
2019-04-30T17:38:25.649Z,945.10
2019-04-30T17:40:51.957Z,945.11
2019-04-30T17:43:18.295Z,945.22
2019-04-30T17:45:44.630Z,945.34
2019-04-30T17:48:13.271Z,945.43
2019-04-30T17:50:37.232Z,945.46
2019-04-30T17:53:03.565Z,945.48
2019-04-30T17:55:29.900Z,945.49
2019-04-30T17:57:56.206Z,945.53
2019-04-30T18:00:22.642Z,945.54
2019-04-30T18:02:48.915Z,945.62
2019-04-30T18:05:15.315Z,945.67
2019-04-30T18:07:41.642Z,945.72
2019-04-30T18:10:08.770Z,945.87
2019-04-30T18:12:34.276Z,945.98
2019-04-30T18:15:00.579Z,946.11
2019-04-30T18:17:26.934Z,946.16
2019-04-30T18:19:53.266Z,946.21
2019-04-30T18:22:19.611Z,946.27
2019-04-30T18:24:45.905Z,946.30
2019-04-30T18:27:12.223Z,946.44
2019-04-30T18:29:38.548Z,946.35
2019-04-30T18:32:04.956Z,946.47
2019-04-30T18:34:31.276Z,946.41
2019-04-30T18:36:59.320Z,946.44
2019-04-30T18:39:23.908Z,946.44
2019-04-30T18:41:50.229Z,946.43
2019-04-30T18:44:16.548Z,946.51
2019-04-30T18:46:42.867Z,946.60
2019-04-30T18:49:10.358Z,946.58
2019-04-30T18:51:39.380Z,946.62
2019-04-30T18:54:01.859Z,946.66
2019-04-30T18:56:28.976Z,946.72
2019-04-30T18:58:54.530Z,946.72
2019-04-30T19:01:20.835Z,946.76
2019-04-30T19:03:49.124Z,946.78
2019-04-30T19:06:22.899Z,946.61
2019-04-30T19:08:39.881Z,946.73
2019-04-30T19:11:06.166Z,946.75
2019-04-30T19:13:32.477Z,946.77
2019-04-30T19:16:18.759Z,946.73
2019-04-30T19:18:25.163Z,946.84
2019-04-30T19:20:51.654Z,946.87
2019-04-30T19:23:19.079Z,946.89
2019-04-30T19:25:44.272Z,946.90
2019-04-30T19:28:14.323Z,946.99
2019-04-30T19:30:38.885Z,947.06
2019-04-30T19:33:03.393Z,947.10
2019-04-30T19:35:29.705Z,947.07
2019-04-30T19:37:56.045Z,947.12
2019-04-30T19:40:22.358Z,947.17
2019-04-30T19:42:50.860Z,947.16
2019-04-30T19:45:15.055Z,947.10
2019-04-30T19:47:41.378Z,947.20
2019-04-30T19:50:09.435Z,947.23
2019-04-30T19:52:34.041Z,947.20
2019-04-30T19:55:00.353Z,947.25
2019-04-30T19:57:28.538Z,947.22
2019-04-30T19:59:53.033Z,947.18
2019-04-30T20:02:21.685Z,947.23
2019-04-30T20:04:47.375Z,947.15
2019-04-30T20:07:13.963Z,947.16
2019-04-30T20:09:42.995Z,947.22
2019-04-30T20:12:06.599Z,947.14
2019-04-30T20:14:32.937Z,947.17
2019-04-30T20:16:59.313Z,947.13
2019-04-30T20:19:25.620Z,947.15
2019-04-30T20:21:54.004Z,947.17
2019-04-30T20:24:19.360Z,947.25
2019-04-30T20:26:44.701Z,947.17
2019-04-30T20:29:11.046Z,947.17
2019-04-30T20:31:38.537Z,947.15
2019-04-30T20:34:03.811Z,947.14
2019-04-30T20:36:30.257Z,947.11
2019-04-30T20:38:56.652Z,947.19
2019-04-30T20:41:22.999Z,947.17
2019-04-30T20:43:49.435Z,947.22
2019-04-30T20:46:15.706Z,947.22
2019-04-30T20:48:41.972Z,947.25
2019-04-30T20:51:09.600Z,947.25
2019-04-30T20:53:34.477Z,947.28
2019-04-30T20:56:00.815Z,947.32
2019-04-30T20:58:27.123Z,947.21
2019-04-30T21:01:01.131Z,947.19
2019-04-30T21:03:19.768Z,947.28
2019-04-30T21:05:46.077Z,947.25
2019-04-30T21:08:12.413Z,947.18
2019-04-30T21:10:39.689Z,947.18
2019-04-30T21:13:05.120Z,947.17
2019-04-30T21:15:34.235Z,947.30
2019-04-30T21:18:00.536Z,947.26
2019-04-30T21:20:28.511Z,947.21
2019-04-30T21:22:53.194Z,947.20
2019-04-30T21:25:19.507Z,947.19
2019-04-30T21:27:45.835Z,947.12
2019-04-30T21:30:12.140Z,947.14
2019-04-30T21:32:38.805Z,947.11
2019-04-30T21:35:04.895Z,947.00
2019-04-30T21:37:31.223Z,947.04
2019-04-30T21:39:58.607Z,947.03
2019-04-30T21:42:23.838Z,946.96
2019-04-30T21:44:50.163Z,947.03
2019-04-30T21:47:16.469Z,946.96
2019-04-30T21:49:42.794Z,946.97
2019-04-30T21:52:09.097Z,946.97
2019-04-30T21:54:35.431Z,947.05
2019-04-30T21:57:01.729Z,947.09
2019-04-30T21:59:28.725Z,947.01
2019-04-30T22:01:54.387Z,946.98
2019-04-30T22:04:20.691Z,946.94
2019-04-30T22:06:47.032Z,946.95
2019-04-30T22:09:13.328Z,946.97
2019-04-30T22:11:39.650Z,947.04
2019-04-30T22:14:05.976Z,947.15
2019-04-30T22:16:32.301Z,947.00
2019-04-30T22:18:58.604Z,946.98
2019-04-30T22:21:24.918Z,946.91
2019-04-30T22:23:51.248Z,946.88
2019-04-30T22:26:17.555Z,946.84
2019-04-30T22:28:43.877Z,946.92
2019-04-30T22:31:10.203Z,946.85
2019-04-30T22:33:36.509Z,946.92
2019-04-30T22:36:02.835Z,946.95
2019-04-30T22:38:29.259Z,946.92
2019-04-30T22:40:55.523Z,946.94
2019-04-30T22:43:21.849Z,946.93
2019-04-30T22:45:49.873Z,946.90
2019-04-30T22:48:14.478Z,946.82
2019-04-30T22:50:40.786Z,946.84
2019-04-30T22:53:07.143Z,946.80
2019-04-30T22:55:33.463Z,946.85
2019-04-30T22:57:59.783Z,946.81
2019-04-30T23:00:26.107Z,946.84
2019-04-30T23:02:53.604Z,946.86
2019-04-30T23:05:20.637Z,946.90
2019-04-30T23:07:46.940Z,946.90
2019-04-30T23:10:13.272Z,946.86
2019-04-30T23:12:39.608Z,946.76
2019-04-30T23:15:05.949Z,946.70
2019-04-30T23:17:32.252Z,946.74
2019-04-30T23:19:58.593Z,946.78
2019-04-30T23:22:24.914Z,946.72
2019-04-30T23:24:51.212Z,946.69
2019-04-30T23:27:17.544Z,946.61
2019-04-30T23:29:43.856Z,946.65
2019-04-30T23:32:10.187Z,946.64
2019-04-30T23:34:36.489Z,946.61
2019-04-30T23:37:02.814Z,946.56
2019-04-30T23:39:29.167Z,946.58
2019-04-30T23:41:55.913Z,946.59
2019-04-30T23:44:22.325Z,946.53
2019-04-30T23:46:48.630Z,946.50
2019-04-30T23:49:14.962Z,946.50
2019-04-30T23:51:41.291Z,946.53
2019-04-30T23:54:07.598Z,946.50
2019-04-30T23:56:33.918Z,946.59
2019-04-30T23:59:00.244Z,946.53
